Noshahr, Iran

12:55 AM IRDT on July 23, 2014 (GMT +0430)
Noshahr (OINN) Elev -62 ft | 36.66 °N, 51.46 °E | Change Station

Current weather conditions updated 25 minutes ago

Clear
Clear
75 °F
Feels Like 75 °F
N
5
Wind Variable Wind from SSW

Today is forecast to be nearly the same temperature as yesterday.

Today
High -- | Low -- °F
--% Chance of Precip.
Yesterday
High -- | Low -- °F
Precip. -- in
6:02 AM 8:18 PM
Waning Crescent, 15% visible
Pressure 29.77 in
Visibility -9999.0 miles
Clouds
Dew Point 68 °F
Humidity 78%
Rainfall 0.00 in
Snow Depth Not available.
UV Not available.
Pollen Not available.
Air Quality Not available.
Flu Activity Not available.
METAR OINN 222000Z 21004KT CAVOK 24/20 Q1008

More Conditions Fewer Conditions

Pressure 29.77 in
Visibility -9999.0 miles
Clouds
Dew Point 68 °F
Humidity 78%
Rainfall 0.00 in
Snow Depth Not available.
UV Not available.
Pollen Not available.
Air Quality Not available.
Flu Activity Not available.
METAR OINN 222000Z 21004KT CAVOK 24/20 Q1008

More Conditions Fewer Conditions

10-Day Weather Forecast

Almanac

Astronomy

Jul. 23, 2014 Rise Set
Actual Time 6:02 AM IRDT 8:18 PM IRDT
Civil Twilight 5:33 AM IRDT 8:47 PM IRDT
Nautical Twilight 4:57 AM IRDT 9:23 PM IRDT
Astronomical Twilight 4:18 AM IRDT 10:02 PM IRDT
Moon 3:02 AM IRDT (7/23) 5:27 PM IRDT (7/23)
Length of Visible Light 15h 13m
Length of Day
14h 15m
Tomorrow will be 1m 29s shorter.
Waning Crescent, 15% of the Moon is Illuminated
Jul 22
Waning Crescent
Jul 26
New
Aug 3
First Quarter
Aug 10
Full
Aug 17
Last Quarter

Yesterday's Extremes

Country Highs Country Lows

Community

WunderPhotos

Upload Photos

1,736,345 photos uploaded!

Nearby

Snow Depth

Not available.

Earthquake Activity

City Distance Mag. Time & Date
No recent earthquake activity has been reported nearby.
Minimum magnitude displayed is 2.5.

Coastal Water Temperatures

Place Temperature
No Stations Reporting

Nearby Weather Stations

There are no personal weather stations in this area.